Time;durP1;ratioP1;P1;durP2;ratioP2;P2;SDS_P1;SDS_P2;PMS_P1;PMS_P2;Temp;Humidity;BMP_temperature;BMP_pressure;BME280_temperature;BME280_humidity;BME280_pressure;Samples;Min_cycle;Max_cycle;Signal;HPM_P1;HPM_P2
2021/03/31 00:00:38;;;;;;;26.13;11.27;;;6.80;99.90;;;;;;4959506;28;20178;-85
2021/03/31 00:03:08;;;;;;;23.23;10.70;;;6.80;99.90;;;;;;4959320;28;20245;-84
2021/03/31 00:05:34;;;;;;;23.27;10.70;;;6.80;99.90;;;;;;4959550;28;20193;-84
2021/03/31 00:07:59;;;;;;;30.20;13.47;;;6.80;99.90;;;;;;4959478;28;20182;-85
2021/03/31 00:10:29;;;;;;;25.40;13.23;;;6.70;99.90;;;;;;4958675;28;20221;-85
2021/03/31 00:12:54;;;;;;;25.47;12.50;;;6.60;99.90;;;;;;4959030;28;20664;-85
2021/03/31 00:15:20;;;;;;;22.60;11.77;;;6.60;99.90;;;;;;4959583;28;20182;-85
2021/03/31 00:17:46;;;;;;;26.47;13.03;;;6.60;99.90;;;;;;4958326;28;20179;-85
2021/03/31 00:20:16;;;;;;;30.10;14.07;;;6.60;99.90;;;;;;4959364;28;20215;-87
2021/03/31 00:22:43;;;;;;;29.70;12.83;;;6.60;99.90;;;;;;4958878;28;20237;-85
2021/03/31 00:25:10;;;;;;;21.30;11.37;;;6.60;99.90;;;;;;4959057;28;20185;-84
2021/03/31 00:27:36;;;;;;;24.03;12.03;;;6.60;99.90;;;;;;4959374;28;20261;-85
2021/03/31 00:30:05;;;;;;;29.43;13.70;;;6.60;99.90;;;;;;4959167;28;20253;-85
2021/03/31 00:32:31;;;;;;;29.93;12.83;;;6.60;99.90;;;;;;4959448;28;20178;-85
2021/03/31 00:34:56;;;;;;;23.80;12.33;;;6.60;99.90;;;;;;4959330;28;20671;-85
2021/03/31 00:37:22;;;;;;;29.23;13.00;;;6.60;99.90;;;;;;4958726;28;20182;-84
2021/03/31 00:39:47;;;;;;;27.73;13.80;;;6.40;99.90;;;;;;4959005;28;20194;-85
2021/03/31 00:42:13;;;;;;;29.27;13.17;;;6.30;99.90;;;;;;4959027;28;20178;-84
2021/03/31 00:44:38;;;;;;;29.63;13.63;;;6.30;99.90;;;;;;4959218;28;20739;-85
2021/03/31 00:47:04;;;;;;;29.13;13.73;;;6.30;99.90;;;;;;4959503;28;20727;-85
2021/03/31 00:49:30;;;;;;;27.03;13.43;;;6.20;99.90;;;;;;4959226;28;20679;-85
2021/03/31 00:51:56;;;;;;;26.17;13.43;;;6.10;99.90;;;;;;4959319;28;20235;-84
2021/03/31 00:54:21;;;;;;;28.93;14.23;;;6.10;99.90;;;;;;4959661;28;20174;-85
2021/03/31 00:56:48;;;;;;;28.20;14.00;;;6.10;99.90;;;;;;4959052;28;20282;-84
2021/03/31 00:59:13;;;;;;;30.97;14.30;;;6.10;99.90;;;;;;4954648;28;20202;-85
2021/03/31 01:01:39;;;;;;;26.43;13.67;;;6.20;99.90;;;;;;4958131;28;20229;-85
2021/03/31 01:04:05;;;;;;;31.53;14.67;;;6.20;99.90;;;;;;4958226;28;20703;-85
2021/03/31 01:06:30;;;;;;;28.93;13.60;;;5.90;99.90;;;;;;4957441;28;20192;-85
2021/03/31 01:08:56;;;;;;;29.30;14.10;;;5.70;99.90;;;;;;4957810;28;20206;-85
2021/03/31 01:11:34;;;;;;;28.27;13.87;;;5.70;99.90;;;;;;4958424;28;20294;-84
2021/03/31 01:14:13;;;;;;;29.63;14.80;;;5.80;99.90;;;;;;4957644;28;20268;-86
2021/03/31 01:16:49;;;;;;;29.23;15.30;;;5.60;99.90;;;;;;4958200;28;20170;-85
2021/03/31 01:19:15;;;;;;;31.00;14.10;;;5.70;99.90;;;;;;4958611;28;20675;-85
2021/03/31 01:22:18;;;;;;;34.83;16.17;;;5.80;99.90;;;;;;4975153;28;20189;-86
2021/03/31 01:24:55;;;;;;;32.63;14.87;;;5.70;99.90;;;;;;4958364;28;20236;-83
2021/03/31 01:27:50;;;;;;;31.23;16.03;;;5.60;99.90;;;;;;4975008;28;20177;-84
2021/03/31 01:30:59;;;;;;;30.90;14.77;;;5.70;99.90;;;;;;4956625;28;20650;-84
2021/03/31 01:33:58;;;;;;;23.50;12.77;;;5.80;99.90;;;;;;4957883;28;20178;-84
2021/03/31 01:36:25;;;;;;;29.50;13.50;;;5.80;99.90;;;;;;4957741;28;20416;-84
2021/03/31 01:38:58;;;;;;;27.20;15.07;;;5.60;99.90;;;;;;4957842;28;20217;-84
2021/03/31 01:41:25;;;;;;;29.00;13.93;;;5.70;99.90;;;;;;4958519;28;20179;-84
2021/03/31 01:43:54;;;;;;;31.07;14.37;;;5.70;99.90;;;;;;4958235;28;20186;-84
2021/03/31 01:46:24;;;;;;;29.60;15.20;;;5.70;99.90;;;;;;4958030;28;20241;-84
2021/03/31 01:48:51;;;;;;;29.03;15.23;;;5.70;99.90;;;;;;4957755;28;20210;-86
2021/03/31 01:51:18;;;;;;;28.47;14.23;;;5.70;99.90;;;;;;4958219;28;20295;-86
2021/03/31 01:53:45;;;;;;;31.50;14.60;;;5.70;99.90;;;;;;4957789;28;20186;-84
2021/03/31 01:56:11;;;;;;;28.93;14.40;;;5.70;99.90;;;;;;4958310;28;20186;-84
2021/03/31 01:58:38;;;;;;;29.47;14.53;;;5.70;99.90;;;;;;4958027;28;20255;-84
2021/03/31 02:01:05;;;;;;;28.83;14.23;;;5.70;99.90;;;;;;4958027;28;20185;-86
2021/03/31 02:03:31;;;;;;;32.73;14.83;;;5.70;99.90;;;;;;4957735;28;20641;-86
2021/03/31 02:05:58;;;;;;;25.73;13.70;;;5.50;99.90;;;;;;4958324;28;20185;-85
2021/03/31 02:08:24;;;;;;;35.13;14.73;;;5.60;99.90;;;;;;4958126;28;20215;-84
2021/03/31 02:10:50;;;;;;;28.97;14.90;;;5.50;99.90;;;;;;4958143;28;20240;-84
2021/03/31 02:13:17;;;;;;;31.97;15.00;;;5.30;99.90;;;;;;4958375;28;20186;-84
2021/03/31 02:15:46;;;;;;;31.87;15.60;;;5.40;99.90;;;;;;4958227;28;20178;-84
2021/03/31 02:18:15;;;;;;;33.53;16.87;;;5.20;99.90;;;;;;4959072;28;20174;-85
2021/03/31 02:20:40;;;;;;;32.93;15.83;;;5.30;99.90;;;;;;4958190;28;20188;-85
2021/03/31 02:23:06;;;;;;;34.43;16.27;;;5.30;99.90;;;;;;4958786;28;20188;-84
2021/03/31 02:25:33;;;;;;;36.43;15.93;;;5.30;99.90;;;;;;4958716;28;20185;-84
2021/03/31 02:27:59;;;;;;;36.87;18.23;;;5.40;99.90;;;;;;4957735;28;20174;-85
2021/03/31 02:30:27;;;;;;;34.30;17.17;;;5.30;99.90;;;;;;4974568;28;20207;-84
2021/03/31 02:32:57;;;;;;;34.53;17.90;;;5.30;99.90;;;;;;4957712;28;20546;-84
2021/03/31 02:35:23;;;;;;;34.93;16.97;;;5.30;99.90;;;;;;4957179;28;20274;-84
2021/03/31 02:37:56;;;;;;;37.93;18.37;;;5.30;99.90;;;;;;4957264;28;20275;-84
2021/03/31 02:40:22;;;;;;;36.00;18.17;;;5.30;99.90;;;;;;4957363;28;20208;-84
2021/03/31 02:42:49;;;;;;;41.00;18.83;;;5.30;99.90;;;;;;4961050;28;20178;-85
2021/03/31 02:45:18;;;;;;;36.80;17.83;;;5.30;99.90;;;;;;4960749;28;20178;-85
2021/03/31 02:47:45;;;;;;;36.93;18.37;;;5.20;99.90;;;;;;4960936;28;20604;-85
2021/03/31 02:50:17;;;;;;;35.10;17.70;;;5.10;99.90;;;;;;4960492;28;20213;-84
2021/03/31 02:52:44;;;;;;;39.20;20.20;;;5.00;99.90;;;;;;4960704;28;20181;-86
2021/03/31 02:55:11;;;;;;;39.53;18.57;;;5.20;99.90;;;;;;4960813;28;20239;-84
2021/03/31 02:57:37;;;;;;;38.13;17.43;;;5.20;99.90;;;;;;4960759;28;20620;-86
2021/03/31 03:00:08;;;;;;;38.27;17.70;;;5.20;99.90;;;;;;4958336;28;20711;-85
2021/03/31 03:02:36;;;;;;;37.33;17.33;;;5.20;99.90;;;;;;4958815;29;20175;-84
2021/03/31 03:05:03;;;;;;;36.77;17.30;;;5.20;99.90;;;;;;4941279;29;20274;-85
2021/03/31 03:07:29;;;;;;;35.57;18.40;;;5.20;99.90;;;;;;4941339;29;20214;-86
2021/03/31 03:09:55;;;;;;;34.97;17.30;;;5.20;99.90;;;;;;4941649;29;20246;-84
2021/03/31 03:12:22;;;;;;;35.07;17.07;;;5.20;99.90;;;;;;4941147;29;20184;-85
2021/03/31 03:14:50;;;;;;;36.17;17.90;;;5.10;99.90;;;;;;4942186;29;20185;-85
2021/03/31 03:17:18;;;;;;;37.30;17.97;;;5.10;99.90;;;;;;4943136;29;20179;-84
2021/03/31 03:19:44;;;;;;;33.83;17.40;;;5.10;99.90;;;;;;4942830;29;20209;-85
2021/03/31 03:22:12;;;;;;;38.70;18.27;;;5.00;99.90;;;;;;4942248;29;20269;-85
2021/03/31 03:24:38;;;;;;;39.43;18.63;;;5.00;99.90;;;;;;4942748;29;20558;-85
2021/03/31 03:27:05;;;;;;;40.63;19.93;;;5.10;99.90;;;;;;4941930;29;20181;-85
2021/03/31 03:29:31;;;;;;;40.57;19.00;;;5.00;99.90;;;;;;4942281;29;20214;-85
2021/03/31 03:31:57;;;;;;;40.20;19.60;;;5.00;99.90;;;;;;4942421;29;20213;-85
2021/03/31 03:34:23;;;;;;;38.97;17.93;;;5.10;99.90;;;;;;4942183;29;20191;-85
2021/03/31 03:36:49;;;;;;;40.50;19.87;;;5.00;99.90;;;;;;4942106;29;20181;-85
2021/03/31 03:39:15;;;;;;;39.53;20.23;;;5.00;99.90;;;;;;4942531;29;20205;-84
2021/03/31 03:41:43;;;;;;;42.50;20.43;;;5.00;99.90;;;;;;4942540;29;20186;-85
2021/03/31 03:44:09;;;;;;;42.20;20.20;;;4.90;99.90;;;;;;4942952;29;20245;-86
2021/03/31 03:46:36;;;;;;;41.27;19.80;;;4.90;99.90;;;;;;4942550;29;20274;-85
2021/03/31 03:49:03;;;;;;;43.77;21.23;;;4.90;99.90;;;;;;4941222;29;20213;-86
2021/03/31 03:51:31;;;;;;;42.93;21.27;;;4.90;99.90;;;;;;4940987;29;20181;-84
2021/03/31 03:53:57;;;;;;;54.57;24.27;;;4.90;99.90;;;;;;4940178;29;20185;-85
2021/03/31 03:56:23;;;;;;;46.33;22.70;;;5.00;99.90;;;;;;4940179;29;20177;-85
2021/03/31 03:58:50;;;;;;;45.77;23.97;;;5.00;99.90;;;;;;4940008;29;20270;-85
2021/03/31 04:01:15;;;;;;;51.40;23.40;;;5.00;99.90;;;;;;4940687;29;20183;-85
2021/03/31 04:03:41;;;;;;;40.53;20.17;;;5.10;99.90;;;;;;4940798;29;20250;-84
2021/03/31 04:06:08;;;;;;;47.30;21.20;;;5.00;99.90;;;;;;4940234;29;20181;-85
2021/03/31 04:08:34;;;;;;;48.37;23.30;;;5.00;99.90;;;;;;4940475;29;20207;-85
2021/03/31 04:11:00;;;;;;;48.90;22.33;;;4.90;99.90;;;;;;4940748;29;20226;-85
2021/03/31 04:13:28;;;;;;;45.07;22.20;;;4.90;99.90;;;;;;4940596;29;20182;-84
2021/03/31 04:16:02;;;;;;;47.40;22.67;;;4.90;99.90;;;;;;4940295;29;20243;-84
2021/03/31 04:18:29;;;;;;;47.63;22.83;;;4.80;99.90;;;;;;4940311;29;20198;-86
2021/03/31 04:20:57;;;;;;;46.30;23.30;;;4.80;99.90;;;;;;4940814;29;20188;-85
2021/03/31 04:23:24;;;;;;;46.77;23.63;;;4.70;99.90;;;;;;4940238;29;20641;-85
2021/03/31 04:25:49;;;;;;;44.40;21.87;;;4.70;99.90;;;;;;4957641;29;20221;-84
2021/03/31 04:28:16;;;;;;;49.67;23.50;;;4.60;99.90;;;;;;4946977;28;20276;-84
2021/03/31 04:30:42;;;;;;;48.20;22.03;;;4.70;99.90;;;;;;4958972;28;20221;-84
2021/03/31 04:33:10;;;;;;;53.73;24.03;;;4.70;99.90;;;;;;4959107;28;20211;-85
2021/03/31 04:35:36;;;;;;;49.73;23.87;;;4.70;99.90;;;;;;4959029;28;20195;-84
2021/03/31 04:38:13;;;;;;;47.20;22.00;;;4.60;99.90;;;;;;4959067;28;20190;-84
2021/03/31 04:40:53;;;;;;;48.53;22.77;;;4.60;99.90;;;;;;4959147;28;20170;-84
2021/03/31 04:43:20;;;;;;;52.17;24.17;;;4.60;99.90;;;;;;4959235;28;20257;-85
2021/03/31 04:45:45;;;;;;;51.77;24.57;;;4.60;99.90;;;;;;4959443;28;20178;-85
2021/03/31 04:48:11;;;;;;;59.70;26.53;;;4.70;99.90;;;;;;4961703;28;20225;-85
2021/03/31 04:50:38;;;;;;;53.27;23.87;;;4.60;99.90;;;;;;4959957;28;20270;-85
2021/03/31 04:53:03;;;;;;;49.93;23.60;;;4.60;99.90;;;;;;4960155;28;20171;-84
2021/03/31 04:55:29;;;;;;;55.67;24.57;;;4.70;99.90;;;;;;4960144;28;20234;-85
2021/03/31 04:57:54;;;;;;;57.40;23.13;;;4.70;99.90;;;;;;4960376;28;20176;-85
2021/03/31 05:00:20;;;;;;;52.33;24.67;;;4.70;99.90;;;;;;4958596;28;20672;-84
2021/03/31 05:02:46;;;;;;;54.67;25.73;;;4.70;99.90;;;;;;4955026;28;20220;-85
2021/03/31 05:05:12;;;;;;;56.10;27.30;;;4.80;99.90;;;;;;4956318;28;20537;-85
2021/03/31 05:07:38;;;;;;;59.27;26.33;;;4.80;99.90;;;;;;4959581;28;20185;-86
2021/03/31 05:10:04;;;;;;;62.37;28.50;;;4.80;99.90;;;;;;4959692;28;20238;-84
2021/03/31 05:12:30;;;;;;;61.93;28.60;;;4.80;99.90;;;;;;4959098;28;20264;-86
2021/03/31 05:14:56;;;;;;;53.00;25.17;;;4.80;99.90;;;;;;4956600;28;20287;-86
2021/03/31 05:17:22;;;;;;;59.53;25.53;;;5.00;99.90;;;;;;4960250;28;20180;-86
2021/03/31 05:19:48;;;;;;;64.17;27.63;;;4.90;99.90;;;;;;4963589;28;20201;-86
2021/03/31 05:22:14;;;;;;;59.83;27.70;;;4.90;99.90;;;;;;4961643;28;20212;-84
2021/03/31 05:24:48;;;;;;;55.67;25.23;;;5.00;99.90;;;;;;4951970;28;20187;-85
2021/03/31 05:27:15;;;;;;;60.03;25.50;;;5.00;99.90;;;;;;4960443;28;20676;-88
2021/03/31 05:29:40;;;;;;;60.87;25.57;;;5.00;99.90;;;;;;4949325;28;20569;-85
2021/03/31 05:32:06;;;;;;;63.50;28.93;;;5.00;99.90;;;;;;4966091;28;20182;-83
2021/03/31 05:34:32;;;;;;;52.77;24.50;;;5.10;99.90;;;;;;4953811;28;20192;-83
2021/03/31 05:37:01;;;;;;;49.83;23.13;;;5.10;99.90;;;;;;4957815;28;20202;-83
2021/03/31 05:39:26;;;;;;;48.43;22.53;;;5.10;99.90;;;;;;4954844;28;20251;-84
2021/03/31 05:41:52;;;;;;;51.53;22.80;;;5.10;99.90;;;;;;4964469;28;20196;-85
2021/03/31 05:44:18;;;;;;;55.83;22.70;;;5.20;99.90;;;;;;4950149;28;20229;-85
2021/03/31 05:46:44;;;;;;;47.93;21.53;;;5.20;99.90;;;;;;4956361;28;20225;-84
2021/03/31 05:49:09;;;;;;;50.00;22.87;;;5.30;99.90;;;;;;4958317;28;20210;-84
2021/03/31 05:51:35;;;;;;;45.37;22.80;;;5.30;99.90;;;;;;4951535;28;20182;-84
2021/03/31 05:54:03;;;;;;;45.83;22.90;;;5.40;99.90;;;;;;4947239;29;20736;-85
2021/03/31 05:56:32;;;;;;;43.17;22.37;;;5.40;99.90;;;;;;4952142;28;20189;-84
2021/03/31 05:59:02;;;;;;;59.37;24.50;;;5.60;99.90;;;;;;4957781;28;20214;-85
2021/03/31 06:01:28;;;;;;;52.10;23.00;;;5.60;99.90;;;;;;4954787;28;20194;-84
2021/03/31 06:03:58;;;;;;;51.53;25.63;;;5.60;99.90;;;;;;4942069;28;20654;-84
2021/03/31 06:06:25;;;;;;;49.00;23.43;;;5.70;99.90;;;;;;4959958;28;20189;-85
2021/03/31 06:08:56;;;;;;;55.60;27.37;;;5.70;99.90;;;;;;4957470;28;20213;-84
2021/03/31 06:11:22;;;;;;;45.67;22.83;;;5.80;99.90;;;;;;4959683;28;20209;-85
2021/03/31 06:13:53;;;;;;;53.53;23.27;;;5.90;99.90;;;;;;4967387;28;20188;-84
2021/03/31 06:16:36;;;;;;;48.10;23.40;;;5.90;99.90;;;;;;4945254;28;20199;-84
2021/03/31 06:19:21;;;;;;;54.80;26.70;;;6.10;99.90;;;;;;4956079;28;20301;-84
2021/03/31 06:22:17;;;;;;;54.57;26.73;;;6.20;99.90;;;;;;4959216;28;20195;-84
2021/03/31 06:24:48;;;;;;;51.73;24.97;;;6.20;99.90;;;;;;4952690;28;20193;-84
2021/03/31 06:27:27;;;;;;;55.53;26.20;;;6.30;99.90;;;;;;4960069;28;20263;-85
2021/03/31 06:30:07;;;;;;;54.33;25.50;;;6.40;99.90;;;;;;4959448;28;20268;-84
2021/03/31 06:32:37;;;;;;;52.37;23.73;;;6.60;99.90;;;;;;4974597;28;20177;-87
2021/03/31 06:35:05;;;;;;;50.57;24.43;;;6.70;99.90;;;;;;4965999;28;20197;-86
2021/03/31 06:37:34;;;;;;;47.23;22.43;;;6.80;99.90;;;;;;4959099;28;20583;-85
2021/03/31 06:40:00;;;;;;;50.27;23.20;;;7.00;99.90;;;;;;4959598;28;20216;-86
2021/03/31 06:42:44;;;;;;;47.50;21.40;;;7.10;99.90;;;;;;4958711;28;20275;-84
2021/03/31 06:48:06;;;;;;;48.00;21.37;;;7.40;99.90;;;;;;4967740;28;20270;-85
2021/03/31 06:50:36;;;;;;;48.00;22.00;;;7.60;99.90;;;;;;4970425;28;20583;-84
2021/03/31 06:53:05;;;;;;;43.23;19.37;;;7.80;99.90;;;;;;4945334;29;20562;-85
2021/03/31 06:55:31;;;;;;;40.93;19.67;;;7.90;99.90;;;;;;4943099;28;20386;-84
2021/03/31 06:58:07;;;;;;;44.73;19.40;;;8.00;99.90;;;;;;4958182;28;20178;-84
2021/03/31 07:00:39;;;;;;;38.77;18.47;;;8.10;99.90;;;;;;4958067;28;20182;-85
2021/03/31 07:03:06;;;;;;;39.40;16.87;;;8.30;99.90;;;;;;4959172;28;20556;-86
2021/03/31 07:05:34;;;;;;;41.80;18.97;;;8.40;99.90;;;;;;4958140;28;20193;-85
2021/03/31 07:08:15;;;;;;;39.50;17.97;;;8.60;99.90;;;;;;4939727;29;20183;-85
2021/03/31 07:10:50;;;;;;;45.57;17.63;;;8.70;99.90;;;;;;4958226;28;20210;-87
2021/03/31 07:13:35;;;;;;;41.83;16.90;;;8.80;99.90;;;;;;4951301;28;20249;-85
2021/03/31 07:16:03;;;;;;;36.50;16.33;;;8.90;99.90;;;;;;4948498;29;20310;-87
2021/03/31 07:18:35;;;;;;;42.20;17.50;;;9.10;99.90;;;;;;4963381;28;20256;-85
2021/03/31 07:21:01;;;;;;;29.30;14.40;;;9.20;99.90;;;;;;4959502;28;20529;-85
2021/03/31 07:23:27;;;;;;;32.07;14.77;;;9.30;99.90;;;;;;4960306;28;20686;-85
2021/03/31 07:25:54;;;;;;;33.13;13.93;;;9.50;99.90;;;;;;4960330;28;20178;-86
2021/03/31 07:28:29;;;;;;;33.90;12.67;;;9.60;99.90;;;;;;4961553;28;20182;-86
2021/03/31 07:30:55;;;;;;;31.90;14.17;;;9.80;99.90;;;;;;4963374;28;20186;-88
2021/03/31 07:33:27;;;;;;;32.60;13.30;;;9.90;99.90;;;;;;4956175;28;20182;-86
2021/03/31 07:35:53;;;;;;;30.00;13.50;;;10.10;99.90;;;;;;4965050;28;20200;-86
2021/03/31 07:38:22;;;;;;;33.93;13.50;;;10.20;99.90;;;;;;4963875;28;20225;-86
2021/03/31 07:40:50;;;;;;;28.57;12.90;;;10.30;99.90;;;;;;4961879;28;20262;-87
2021/03/31 07:43:23;;;;;;;25.97;11.03;;;10.40;99.90;;;;;;4959981;28;20186;-87
2021/03/31 07:46:03;;;;;;;30.87;11.13;;;10.40;99.90;;;;;;4958568;28;20325;-87
2021/03/31 07:48:30;;;;;;;28.53;12.47;;;10.50;99.90;;;;;;4956464;28;20256;-87
2021/03/31 07:50:56;;;;;;;25.97;11.37;;;10.70;99.90;;;;;;4950582;29;20197;-86
2021/03/31 07:53:23;;;;;;;27.50;12.13;;;10.80;99.90;;;;;;4943783;29;20187;-85
2021/03/31 07:55:52;;;;;;;22.70;10.60;;;10.90;99.90;;;;;;4955099;28;20179;-86
2021/03/31 07:58:28;;;;;;;23.73;10.07;;;11.00;99.90;;;;;;4949783;28;20631;-88
2021/03/31 08:01:03;;;;;;;22.90;9.87;;;11.10;99.90;;;;;;4956193;28;20652;-85
2021/03/31 08:03:31;;;;;;;22.07;9.80;;;11.20;99.90;;;;;;4969085;28;20261;-86
2021/03/31 08:06:11;;;;;;;21.47;9.73;;;11.20;99.90;;;;;;4958087;28;20854;-86
2021/03/31 08:08:46;;;;;;;21.03;9.80;;;11.30;99.90;;;;;;4959567;28;20237;-86
2021/03/31 08:11:12;;;;;;;23.03;10.20;;;11.30;99.90;;;;;;4952422;28;20293;-86
2021/03/31 08:13:41;;;;;;;24.37;10.23;;;11.40;99.90;;;;;;4967927;28;20178;-88
2021/03/31 08:16:26;;;;;;;23.47;9.97;;;11.50;99.90;;;;;;4958714;28;20179;-86
2021/03/31 08:18:56;;;;;;;22.20;9.60;;;11.70;99.90;;;;;;4957006;28;20216;-89
2021/03/31 08:21:25;;;;;;;21.13;8.77;;;11.70;99.90;;;;;;4959786;28;20182;-87
2021/03/31 08:23:52;;;;;;;24.83;11.03;;;11.90;99.90;;;;;;4968402;28;20198;-87
2021/03/31 08:26:45;;;;;;;21.60;9.50;;;12.10;99.90;;;;;;4966203;28;20198;-87
2021/03/31 08:29:20;;;;;;;19.73;8.50;;;12.20;99.90;;;;;;4939773;28;20211;-88
2021/03/31 08:32:01;;;;;;;18.93;8.37;;;12.40;99.90;;;;;;4964322;28;20190;-87
2021/03/31 08:34:28;;;;;;;16.23;7.90;;;12.50;99.90;;;;;;4964191;28;20197;-89
2021/03/31 08:36:54;;;;;;;19.83;8.97;;;12.70;99.90;;;;;;4959637;28;20806;-87
2021/03/31 08:39:21;;;;;;;18.50;8.10;;;12.80;99.90;;;;;;4958348;28;20212;-87
2021/03/31 08:41:53;;;;;;;18.10;8.10;;;12.90;99.90;;;;;;4962414;28;20182;-87
2021/03/31 08:44:26;;;;;;;21.27;8.37;;;13.00;99.90;;;;;;4956400;28;20192;-87
2021/03/31 08:46:53;;;;;;;18.30;8.53;;;13.10;99.90;;;;;;4961114;28;20653;-87
2021/03/31 08:49:31;;;;;;;18.43;8.90;;;13.20;99.90;;;;;;4964785;28;20620;-88
2021/03/31 08:52:02;;;;;;;18.10;8.93;;;13.30;99.90;;;;;;4957490;28;20209;-87
2021/03/31 08:54:33;;;;;;;20.00;7.63;;;13.50;99.90;;;;;;4951080;28;20326;-88
2021/03/31 08:57:18;;;;;;;18.43;7.80;;;13.60;99.90;;;;;;4954123;28;20236;-87
2021/03/31 08:59:52;;;;;;;17.53;7.33;;;13.80;99.90;;;;;;4963301;28;20209;-87
2021/03/31 09:02:34;;;;;;;13.90;6.90;;;13.90;99.90;;;;;;4962546;28;20332;-86
2021/03/31 09:05:01;;;;;;;15.27;6.10;;;14.10;99.90;;;;;;4955760;28;20199;-86
2021/03/31 09:07:27;;;;;;;14.00;6.17;;;14.30;99.90;;;;;;4952745;28;20201;-88
2021/03/31 09:09:53;;;;;;;16.40;6.07;;;14.40;99.90;;;;;;4950292;29;20269;-86
2021/03/31 09:12:21;;;;;;;13.07;6.47;;;14.50;99.90;;;;;;4951219;28;20182;-86
2021/03/31 09:14:51;;;;;;;16.27;6.57;;;14.70;99.90;;;;;;4959629;28;20197;-87
2021/03/31 09:17:28;;;;;;;15.27;6.20;;;14.70;99.90;;;;;;4953467;28;20182;-87
2021/03/31 09:20:00;;;;;;;10.77;5.73;;;14.90;99.90;;;;;;4946055;28;20205;-87
2021/03/31 09:22:29;;;;;;;10.90;5.37;;;15.00;99.90;;;;;;4952157;29;20190;-88
2021/03/31 09:25:00;;;;;;;13.10;6.13;;;15.10;99.90;;;;;;4968611;28;20648;-87
2021/03/31 09:27:28;;;;;;;12.07;5.30;;;15.20;99.90;;;;;;4947059;28;20229;-86
2021/03/31 09:29:56;;;;;;;10.43;4.53;;;15.30;99.90;;;;;;4948512;28;20257;-87
2021/03/31 09:32:32;;;;;;;15.00;5.70;;;15.40;99.90;;;;;;4952198;28;20205;-87
2021/03/31 09:35:13;;;;;;;11.27;5.10;;;15.50;99.90;;;;;;4954030;28;20201;-87
2021/03/31 09:37:47;;;;;;;11.53;5.27;;;15.70;99.90;;;;;;4969200;28;20183;-87
2021/03/31 09:40:24;;;;;;;15.47;5.10;;;15.70;99.90;;;;;;4950277;29;20210;-87
2021/03/31 09:42:58;;;;;;;11.53;5.73;;;15.90;99.90;;;;;;4949884;28;20194;-85
2021/03/31 09:45:32;;;;;;;11.57;5.00;;;16.00;99.90;;;;;;4956371;28;20245;-88
2021/03/31 09:47:59;;;;;;;13.67;5.77;;;16.10;99.90;;;;;;4966226;28;20557;-86
2021/03/31 09:50:34;;;;;;;11.13;5.30;;;16.20;99.90;;;;;;4951390;28;20210;-87
2021/03/31 09:53:14;;;;;;;13.10;5.30;;;16.20;98.30;;;;;;4952217;28;20582;-87
2021/03/31 09:55:40;;;;;;;11.50;5.60;;;16.30;99.00;;;;;;4955151;28;20189;-86
2021/03/31 09:58:05;;;;;;;13.03;5.93;;;16.40;98.90;;;;;;4951493;28;20224;-86
2021/03/31 10:00:36;;;;;;;13.30;5.53;;;16.50;99.50;;;;;;4947549;28;20187;-87
2021/03/31 10:03:03;;;;;;;15.10;6.30;;;16.60;97.80;;;;;;4956942;28;20743;-87
2021/03/31 10:05:29;;;;;;;13.23;6.90;;;16.70;96.10;;;;;;4956743;28;20610;-87
2021/03/31 10:07:59;;;;;;;11.43;6.23;;;16.70;92.90;;;;;;4951752;28;20241;-87
2021/03/31 10:10:49;;;;;;;14.03;6.73;;;16.80;95.40;;;;;;4956553;28;20321;-85
2021/03/31 10:13:17;;;;;;;13.97;6.37;;;16.80;91.00;;;;;;4956535;28;20187;-86
2021/03/31 10:15:56;;;;;;;14.97;7.27;;;16.90;88.90;;;;;;4956777;28;20325;-87
2021/03/31 10:18:22;;;;;;;14.20;6.13;;;16.90;89.20;;;;;;4951878;28;20186;-84
2021/03/31 10:21:05;;;;;;;15.67;7.53;;;16.90;87.90;;;;;;4954088;28;20191;-86
2021/03/31 10:23:34;;;;;;;16.93;7.63;;;17.00;90.70;;;;;;4950894;28;20183;-87
2021/03/31 10:26:20;;;;;;;13.80;7.20;;;17.10;90.10;;;;;;4956370;28;20269;-86
2021/03/31 10:28:46;;;;;;;19.23;8.80;;;17.20;93.80;;;;;;4973146;28;20231;-86
2021/03/31 10:31:42;;;;;;;19.40;10.27;;;17.30;91.30;;;;;;4973776;28;20184;-87
2021/03/31 10:34:09;;;;;;;21.37;10.33;;;17.30;90.00;;;;;;4940869;28;20235;-85
2021/03/31 10:50:17;;;;;;;24.10;11.83;;;17.80;93.60;;;;;;4973678;28;20223;-83
2021/03/31 10:52:58;;;;;;;23.80;11.77;;;17.90;92.30;;;;;;4956180;28;20186;-88
2021/03/31 10:55:24;;;;;;;20.40;11.07;;;18.00;94.10;;;;;;4956055;28;20240;-86
2021/03/31 10:57:50;;;;;;;26.90;13.50;;;18.10;92.90;;;;;;4952196;29;20186;-86
2021/03/31 11:00:16;;;;;;;26.37;13.20;;;18.00;88.90;;;;;;4952197;29;20213;-86
2021/03/31 11:02:41;;;;;;;25.07;13.43;;;18.00;88.60;;;;;;4964473;28;20300;-87
2021/03/31 11:05:08;;;;;;;26.10;13.73;;;18.20;90.00;;;;;;4959760;28;20271;-87
2021/03/31 11:07:33;;;;;;;24.83;14.40;;;18.30;92.10;;;;;;4961504;28;20188;-87
2021/03/31 11:09:59;;;;;;;31.00;16.70;;;18.40;91.00;;;;;;4954723;28;20216;-87
2021/03/31 11:12:24;;;;;;;28.43;15.63;;;18.40;79.70;;;;;;4954076;28;20240;-87
2021/03/31 11:14:50;;;;;;;28.90;16.13;;;18.50;85.00;;;;;;4953336;28;20188;-86
2021/03/31 11:17:23;;;;;;;30.93;16.60;;;18.50;88.50;;;;;;4959538;28;20277;-85
2021/03/31 11:20:01;;;;;;;30.07;16.43;;;18.60;80.10;;;;;;4959022;28;20565;-86
2021/03/31 11:25:59;;;;;;;28.97;16.53;;;18.60;78.00;;;;;;4973921;28;20208;-87
2021/03/31 11:27:53;;;;;;;31.97;17.17;;;18.60;79.20;;;;;;4954524;28;20201;-86
2021/03/31 11:30:21;;;;;;;31.20;17.80;;;18.70;85.00;;;;;;4974593;28;20210;-84
2021/03/31 11:32:46;;;;;;;32.00;18.33;;;18.70;78.50;;;;;;4958558;28;20285;-87
2021/03/31 11:35:12;;;;;;;31.83;17.80;;;18.70;75.50;;;;;;4976239;28;20281;-87
2021/03/31 11:37:38;;;;;;;30.00;18.57;;;18.70;78.40;;;;;;4959153;28;20235;-87
2021/03/31 11:40:04;;;;;;;29.80;18.70;;;18.70;76.30;;;;;;4955741;29;20218;-89
2021/03/31 11:42:30;;;;;;;30.30;16.57;;;18.90;79.10;;;;;;4958956;28;20191;-86
2021/03/31 11:44:55;;;;;;;29.90;17.07;;;18.90;76.90;;;;;;4976978;28;20193;-89
2021/03/31 11:47:21;;;;;;;29.87;17.13;;;19.00;83.20;;;;;;4958869;28;20252;-86
2021/03/31 11:49:46;;;;;;;34.90;17.30;;;19.00;78.60;;;;;;4958518;28;20738;-86
2021/03/31 11:52:12;;;;;;;33.70;17.57;;;19.10;81.80;;;;;;4976107;28;20182;-87
2021/03/31 11:54:37;;;;;;;28.63;16.37;;;19.20;81.80;;;;;;4958987;28;20194;-86
2021/03/31 11:57:03;;;;;;;32.87;16.70;;;19.20;82.80;;;;;;4958777;28;20184;-88
2021/03/31 11:59:29;;;;;;;34.43;19.27;;;19.30;82.10;;;;;;4955445;29;20207;-87
2021/03/31 12:01:55;;;;;;;32.60;17.30;;;19.30;80.10;;;;;;4974095;28;20191;-86
2021/03/31 12:04:22;;;;;;;37.33;21.07;;;19.40;82.00;;;;;;4952119;28;20180;-86
2021/03/31 12:06:47;;;;;;;35.37;19.97;;;19.30;76.50;;;;;;4958337;28;20219;-86
2021/03/31 12:09:13;;;;;;;34.87;18.90;;;19.30;80.70;;;;;;4958378;28;20233;-86
2021/03/31 12:11:38;;;;;;;34.80;18.30;;;19.40;78.00;;;;;;4958436;28;20178;-87
2021/03/31 12:14:04;;;;;;;35.50;20.23;;;19.40;77.80;;;;;;4957753;28;20185;-86
2021/03/31 12:16:30;;;;;;;36.20;19.60;;;19.40;76.70;;;;;;4965661;28;20656;-87
2021/03/31 12:18:55;;;;;;;33.33;18.13;;;19.50;80.50;;;;;;4957433;28;20217;-87
2021/03/31 12:21:21;;;;;;;39.90;20.57;;;19.60;83.40;;;;;;4958188;28;20192;-87
2021/03/31 12:23:46;;;;;;;31.03;17.33;;;19.60;73.90;;;;;;4958434;28;20205;-87
2021/03/31 12:26:13;;;;;;;35.50;19.57;;;19.60;76.60;;;;;;4957846;28;20195;-86
2021/03/31 12:28:39;;;;;;;35.73;18.47;;;19.60;78.50;;;;;;4957483;28;20209;-86
2021/03/31 12:31:08;;;;;;;34.00;19.10;;;19.70;77.60;;;;;;4957882;28;20176;-86
2021/03/31 12:33:35;;;;;;;39.03;19.50;;;19.60;75.70;;;;;;4949282;28;20644;-88
2021/03/31 12:36:01;;;;;;;33.47;17.23;;;19.70;77.30;;;;;;4957927;28;20197;-87
2021/03/31 12:38:26;;;;;;;31.60;16.63;;;19.80;78.40;;;;;;4957762;28;20673;-86
2021/03/31 12:40:52;;;;;;;36.27;18.33;;;19.80;76.80;;;;;;4957865;28;20217;-87
2021/03/31 12:43:19;;;;;;;29.80;16.20;;;19.90;73.40;;;;;;4957398;28;20189;-86
2021/03/31 12:45:45;;;;;;;38.47;19.67;;;19.90;77.00;;;;;;4958485;28;20185;-87
2021/03/31 12:48:11;;;;;;;33.30;18.03;;;19.90;76.00;;;;;;4957640;28;20189;-86
2021/03/31 12:50:37;;;;;;;34.53;18.50;;;20.00;76.90;;;;;;4957668;28;20202;-85
2021/03/31 12:53:16;;;;;;;34.80;18.10;;;20.00;76.40;;;;;;4958093;28;20185;-86
2021/03/31 12:55:44;;;;;;;34.70;17.33;;;20.10;74.10;;;;;;4956436;28;20187;-87
2021/03/31 12:58:13;;;;;;;33.00;18.33;;;20.10;73.70;;;;;;4957740;28;20193;-86
2021/03/31 13:00:38;;;;;;;32.67;17.17;;;20.10;67.20;;;;;;4956439;28;20192;-85
2021/03/31 13:03:04;;;;;;;29.77;15.53;;;20.20;72.90;;;;;;4957582;28;20531;-85
2021/03/31 13:05:30;;;;;;;34.00;17.60;;;20.20;72.00;;;;;;4957544;28;20296;-88